createdAt,value
2022-08-29T00:01:50.800Z,18.98
2022-08-29T00:04:18.677Z,19.00
2022-08-29T00:06:46.467Z,18.97
2022-08-29T00:09:14.271Z,18.94
2022-08-29T00:11:45.162Z,18.90
2022-08-29T00:14:20.898Z,18.87
2022-08-29T00:16:51.601Z,18.81
2022-08-29T00:19:19.447Z,18.73
2022-08-29T00:21:47.278Z,18.71
2022-08-29T00:24:15.124Z,18.67
2022-08-29T00:26:42.853Z,18.66
2022-08-29T00:29:10.669Z,18.64
2022-08-29T00:31:38.560Z,18.62
2022-08-29T00:34:06.888Z,18.56
2022-08-29T00:36:34.761Z,18.52
2022-08-29T00:39:02.801Z,18.51
2022-08-29T00:41:30.627Z,18.52
2022-08-29T00:43:58.433Z,18.51
2022-08-29T00:46:44.615Z,18.52
2022-08-29T00:49:32.674Z,18.51
2022-08-29T00:52:04.707Z,18.48
2022-08-29T00:54:32.643Z,18.41
2022-08-29T00:57:00.650Z,18.43
2022-08-29T00:59:34.186Z,18.40
2022-08-29T01:02:02.088Z,18.42
2022-08-29T01:04:30.138Z,18.37
2022-08-29T01:06:58.107Z,18.34
2022-08-29T01:09:26.067Z,18.32
2022-08-29T01:12:12.891Z,18.31
2022-08-29T01:14:42.060Z,18.29
2022-08-29T01:17:10.452Z,18.24
2022-08-29T01:20:11.079Z,18.23
2022-08-29T01:22:59.918Z,18.24
2022-08-29T01:25:30.131Z,18.22
2022-08-29T01:28:05.438Z,18.22
2022-08-29T01:30:33.326Z,18.23
2022-08-29T01:33:02.037Z,18.21
2022-08-29T01:35:29.899Z,18.22
2022-08-29T01:37:57.672Z,18.18
2022-08-29T01:40:30.312Z,18.14
2022-08-29T01:42:58.723Z,18.09
2022-08-29T01:45:26.571Z,18.09
2022-08-29T01:47:54.430Z,18.09
2022-08-29T01:50:22.622Z,18.10
2022-08-29T01:52:50.676Z,18.10
2022-08-29T01:55:18.449Z,18.05
2022-08-29T01:57:46.909Z,18.03
2022-08-29T02:00:14.890Z,18.04
2022-08-29T02:02:44.435Z,18.07
2022-08-29T02:05:12.406Z,18.08
2022-08-29T02:07:40.166Z,18.02
2022-08-29T02:10:08.300Z,17.94
2022-08-29T02:12:36.693Z,17.89
2022-08-29T02:15:05.106Z,17.89
2022-08-29T02:17:32.897Z,17.89
2022-08-29T02:20:00.656Z,17.88
2022-08-29T02:22:28.481Z,17.85
2022-08-29T02:24:59.753Z,17.82
2022-08-29T02:27:27.562Z,17.82
2022-08-29T02:29:56.170Z,17.82
2022-08-29T02:32:23.930Z,17.78
2022-08-29T02:34:53.176Z,17.71
2022-08-29T02:37:21.001Z,17.68
2022-08-29T02:39:48.764Z,17.65
2022-08-29T02:42:16.573Z,17.62
2022-08-29T02:44:44.324Z,17.64
2022-08-29T02:47:12.090Z,17.62
2022-08-29T02:49:40.820Z,17.61
2022-08-29T02:52:09.663Z,17.57
2022-08-29T02:54:37.433Z,17.53
2022-08-29T02:57:06.078Z,17.54
2022-08-29T02:59:33.836Z,17.61
2022-08-29T03:02:01.796Z,17.63
2022-08-29T03:04:29.649Z,17.59
2022-08-29T03:06:57.410Z,17.54
2022-08-29T03:09:25.235Z,17.50
2022-08-29T03:11:56.212Z,17.47
2022-08-29T03:14:25.145Z,17.42
2022-08-29T03:16:53.047Z,17.38
2022-08-29T03:19:20.832Z,17.34
2022-08-29T03:21:48.841Z,17.32
2022-08-29T03:24:16.743Z,17.33
2022-08-29T03:26:56.233Z,17.27
2022-08-29T03:29:25.121Z,17.27
2022-08-29T03:31:52.902Z,17.27
2022-08-29T03:34:20.722Z,17.24
2022-08-29T03:36:48.522Z,17.28
2022-08-29T03:39:16.313Z,17.25
2022-08-29T03:41:44.242Z,17.28
2022-08-29T03:44:12.023Z,17.26
2022-08-29T03:46:40.651Z,17.23
2022-08-29T03:49:09.077Z,17.17
2022-08-29T03:51:38.047Z,17.14
2022-08-29T03:54:06.653Z,17.11
2022-08-29T03:56:34.439Z,17.13
2022-08-29T03:59:02.162Z,17.13
2022-08-29T04:01:30.824Z,17.14
2022-08-29T04:03:58.695Z,17.13
2022-08-29T04:06:27.278Z,17.15
2022-08-29T04:08:55.874Z,17.14
2022-08-29T04:11:25.226Z,17.12
2022-08-29T04:13:54.139Z,17.08
2022-08-29T04:16:24.648Z,17.07
2022-08-29T04:18:58.253Z,17.07
2022-08-29T04:21:27.376Z,17.10
2022-08-29T04:23:55.324Z,17.09
2022-08-29T04:26:38.468Z,17.06
2022-08-29T04:29:08.057Z,17.06
2022-08-29T04:31:36.095Z,17.06
2022-08-29T04:34:05.217Z,17.04
2022-08-29T04:36:34.647Z,17.02
2022-08-29T04:39:02.435Z,16.95
2022-08-29T04:41:32.472Z,16.94
2022-08-29T04:44:00.853Z,16.91
2022-08-29T04:46:28.727Z,16.87
2022-08-29T04:49:00.565Z,16.84
2022-08-29T04:51:31.092Z,16.86
2022-08-29T04:53:58.855Z,16.89
2022-08-29T04:56:26.608Z,16.90
2022-08-29T04:58:54.377Z,16.92
2022-08-29T05:01:23.599Z,16.90
2022-08-29T05:03:53.120Z,16.92
2022-08-29T05:06:22.433Z,16.94
2022-08-29T05:08:59.420Z,16.98
2022-08-29T05:11:29.658Z,16.99
2022-08-29T05:13:57.517Z,17.01
2022-08-29T05:16:25.374Z,17.03
2022-08-29T05:18:53.549Z,17.07
2022-08-29T05:21:37.860Z,17.06
2022-08-29T05:24:15.080Z,17.06
2022-08-29T05:26:44.854Z,17.10
2022-08-29T05:29:13.139Z,17.16
2022-08-29T05:31:42.359Z,17.19
2022-08-29T05:34:32.104Z,17.22
2022-08-29T05:37:00.718Z,17.26
2022-08-29T05:39:28.543Z,17.30
2022-08-29T05:41:58.947Z,17.35
2022-08-29T05:44:30.521Z,17.41
2022-08-29T05:47:02.032Z,17.44
2022-08-29T05:49:29.895Z,17.56
2022-08-29T05:51:57.881Z,17.59
2022-08-29T05:54:30.538Z,17.67
2022-08-29T05:56:58.371Z,17.71
2022-08-29T05:59:27.163Z,17.76
2022-08-29T06:01:55.050Z,17.82
2022-08-29T06:04:22.938Z,17.86
2022-08-29T06:06:52.782Z,17.93
2022-08-29T06:09:20.643Z,17.98
2022-08-29T06:11:49.797Z,18.08
2022-08-29T06:14:21.019Z,18.17
2022-08-29T06:16:53.517Z,18.28
2022-08-29T06:19:21.346Z,18.38
2022-08-29T06:21:49.550Z,18.48
2022-08-29T06:24:19.065Z,18.54
2022-08-29T06:26:47.064Z,18.66
2022-08-29T06:29:16.017Z,18.71
2022-08-29T06:31:43.857Z,18.86
2022-08-29T06:34:12.011Z,18.91
2022-08-29T06:36:45.833Z,18.97
2022-08-29T06:39:20.216Z,19.04
2022-08-29T06:41:48.075Z,19.11
2022-08-29T06:44:16.308Z,19.16
2022-08-29T06:46:45.360Z,19.16
2022-08-29T06:49:14.593Z,19.19
2022-08-29T06:51:44.231Z,19.23
2022-08-29T06:54:17.703Z,19.25
2022-08-29T06:56:45.769Z,19.32
2022-08-29T06:59:13.846Z,19.39
2022-08-29T07:01:43.352Z,19.40
2022-08-29T07:04:14.392Z,19.42
2022-08-29T07:06:43.079Z,19.46
2022-08-29T07:09:10.956Z,19.48
2022-08-29T07:11:41.196Z,19.55
2022-08-29T07:14:09.489Z,19.61
2022-08-29T07:16:37.468Z,19.68
2022-08-29T07:19:06.174Z,19.72
2022-08-29T07:21:33.976Z,19.82
2022-08-29T07:24:02.059Z,19.87
2022-08-29T07:26:31.868Z,19.93
2022-08-29T07:29:03.042Z,19.97
2022-08-29T07:31:31.580Z,20.05
2022-08-29T07:34:02.690Z,20.06
2022-08-29T07:36:34.229Z,20.13
2022-08-29T07:39:02.688Z,20.22
2022-08-29T07:41:31.412Z,20.28
2022-08-29T07:43:59.188Z,20.38
2022-08-29T07:46:27.996Z,20.46
2022-08-29T07:48:56.062Z,20.54
2022-08-29T07:51:24.712Z,20.63
2022-08-29T07:53:52.754Z,20.77
2022-08-29T07:56:26.332Z,20.94
2022-08-29T07:58:54.416Z,21.02
2022-08-29T08:01:22.633Z,21.12
2022-08-29T08:03:51.478Z,21.24
2022-08-29T08:06:22.507Z,21.45
2022-08-29T08:08:50.707Z,21.53
2022-08-29T08:11:19.023Z,21.67
2022-08-29T08:13:46.998Z,21.81
2022-08-29T08:16:19.925Z,21.91
2022-08-29T08:18:47.736Z,22.02
2022-08-29T08:21:15.506Z,22.12
2022-08-29T08:23:43.415Z,22.27
2022-08-29T08:26:11.703Z,22.40
2022-08-29T08:28:39.558Z,22.44
2022-08-29T08:31:08.503Z,22.53
2022-08-29T08:33:39.894Z,22.60
2022-08-29T08:36:37.613Z,22.68
2022-08-29T08:39:08.721Z,22.78
2022-08-29T08:41:52.269Z,22.94
2022-08-29T08:44:22.717Z,23.05
2022-08-29T08:46:52.370Z,23.13
2022-08-29T08:49:35.261Z,23.19
2022-08-29T08:52:14.954Z,23.36
2022-08-29T08:54:56.673Z,23.52
2022-08-29T08:57:24.567Z,23.58
2022-08-29T08:59:57.129Z,23.77
2022-08-29T09:02:36.266Z,23.94
2022-08-29T09:05:44.041Z,24.16
2022-08-29T09:08:45.708Z,24.27
2022-08-29T09:11:36.406Z,24.45
2022-08-29T09:14:10.111Z,24.62
2022-08-29T09:16:47.621Z,24.71
2022-08-29T09:19:17.321Z,24.84
2022-08-29T09:21:49.624Z,24.93
2022-08-29T09:24:24.812Z,25.14
2022-08-29T09:26:52.599Z,25.25
2022-08-29T09:29:22.136Z,25.29
2022-08-29T09:32:11.461Z,25.47
2022-08-29T09:35:07.413Z,25.64
2022-08-29T09:37:35.081Z,25.64
2022-08-29T09:40:16.770Z,25.77
2022-08-29T09:42:51.902Z,25.85
2022-08-29T09:45:25.036Z,25.82
2022-08-29T09:48:18.738Z,25.94
2022-08-29T09:50:46.583Z,26.02
2022-08-29T09:53:25.327Z,26.00
2022-08-29T09:55:53.770Z,26.13
2022-08-29T09:58:21.420Z,26.18
2022-08-29T10:01:26.207Z,26.23
2022-08-29T10:03:59.786Z,26.26
2022-08-29T10:06:34.357Z,26.35
2022-08-29T10:09:06.638Z,26.38
2022-08-29T10:11:52.939Z,26.47
2022-08-29T10:14:38.972Z,26.48
2022-08-29T10:17:34.309Z,26.53
2022-08-29T10:20:02.382Z,26.58
2022-08-29T10:22:50.537Z,26.69
2022-08-29T10:25:22.021Z,26.72
2022-08-29T10:27:56.885Z,26.78
2022-08-29T10:30:27.447Z,26.79
2022-08-29T10:33:05.779Z,26.72
2022-08-29T10:36:08.057Z,26.70
2022-08-29T10:38:48.220Z,26.72
2022-08-29T10:41:50.761Z,26.72
2022-08-29T10:44:33.424Z,26.80
2022-08-29T10:47:54.812Z,26.81
2022-08-29T10:50:44.647Z,26.93
2022-08-29T10:53:47.284Z,26.94
2022-08-29T10:56:28.330Z,27.14
2022-08-29T10:59:21.699Z,27.18
2022-08-29T11:02:00.554Z,27.20
2022-08-29T11:04:40.801Z,27.17
2022-08-29T11:07:23.096Z,27.20
2022-08-29T11:10:42.876Z,27.19
2022-08-29T11:13:15.387Z,27.37
2022-08-29T11:16:07.390Z,27.49
2022-08-29T11:18:40.386Z,27.39
2022-08-29T11:21:58.059Z,27.39
2022-08-29T11:24:35.136Z,27.45
2022-08-29T11:27:16.820Z,27.68
2022-08-29T11:30:09.618Z,27.79
2022-08-29T11:32:50.931Z,27.88
2022-08-29T11:35:24.937Z,27.97
2022-08-29T11:38:15.276Z,28.10
2022-08-29T11:43:57.050Z,28.28
2022-08-29T11:46:41.008Z,28.22
2022-08-29T11:49:41.093Z,28.05
2022-08-29T11:52:12.266Z,28.28
2022-08-29T11:54:43.135Z,28.44
2022-08-29T11:57:17.614Z,28.43
2022-08-29T12:00:10.658Z,28.57
2022-08-29T12:02:40.313Z,28.66
2022-08-29T12:05:28.258Z,28.77
2022-08-29T12:08:03.049Z,28.71
2022-08-29T12:10:53.066Z,28.76
2022-08-29T12:13:54.380Z,28.75
2022-08-29T12:16:50.220Z,28.68
2022-08-29T12:20:15.415Z,28.60
2022-08-29T12:23:18.140Z,28.54
2022-08-29T12:26:21.575Z,28.58
2022-08-29T12:28:59.534Z,28.73
2022-08-29T12:31:36.380Z,28.90
2022-08-29T12:34:19.951Z,29.01
2022-08-29T12:36:56.512Z,29.21
2022-08-29T12:39:34.837Z,29.31
2022-08-29T12:42:21.764Z,29.36
2022-08-29T12:45:12.157Z,29.39
2022-08-29T12:48:06.190Z,29.38
2022-08-29T12:51:01.846Z,29.43
2022-08-29T12:53:32.205Z,29.42
2022-08-29T12:56:11.957Z,29.44
2022-08-29T12:58:48.054Z,29.52
2022-08-29T13:01:31.950Z,29.57
2022-08-29T13:04:13.296Z,29.61
2022-08-29T13:07:02.349Z,29.69
2022-08-29T13:09:38.083Z,29.69
2022-08-29T13:12:19.135Z,29.74
2022-08-29T13:14:52.731Z,29.77
2022-08-29T13:17:22.707Z,29.80
2022-08-29T13:20:41.563Z,29.82
2022-08-29T13:23:27.525Z,29.93
2022-08-29T13:26:03.145Z,29.94
2022-08-29T13:28:52.748Z,30.03
2022-08-29T13:31:22.350Z,30.12
2022-08-29T13:33:50.138Z,30.10
2022-08-29T13:36:31.328Z,30.15
2022-08-29T13:39:18.254Z,30.03
2022-08-29T13:41:47.071Z,30.06
2022-08-29T13:44:23.649Z,30.06
2022-08-29T13:46:52.675Z,30.19
2022-08-29T13:49:25.203Z,30.29
2022-08-29T13:51:53.086Z,30.35
2022-08-29T13:54:20.870Z,30.40
2022-08-29T13:56:50.507Z,30.30
2022-08-29T13:59:18.274Z,30.28
2022-08-29T14:04:38.598Z,30.14
2022-08-29T14:07:07.555Z,30.18
2022-08-29T14:09:40.640Z,30.18
2022-08-29T14:12:08.760Z,30.10
2022-08-29T14:14:36.627Z,30.16
2022-08-29T14:17:04.482Z,30.11
2022-08-29T14:19:32.322Z,29.89
2022-08-29T14:22:03.290Z,29.85
2022-08-29T14:24:32.020Z,29.74
2022-08-29T14:27:01.682Z,29.71
2022-08-29T14:29:31.070Z,29.63
2022-08-29T14:31:59.643Z,29.61
2022-08-29T14:34:32.561Z,29.61
2022-08-29T14:37:01.700Z,29.47
2022-08-29T14:39:29.906Z,29.48
2022-08-29T14:41:57.806Z,29.40
2022-08-29T14:44:25.610Z,29.38
2022-08-29T14:46:53.743Z,29.23
2022-08-29T14:49:21.583Z,29.10
2022-08-29T14:51:49.903Z,29.04
2022-08-29T14:54:19.047Z,28.90
2022-08-29T14:56:49.575Z,28.77
2022-08-29T14:59:19.304Z,28.75
2022-08-29T15:01:52.909Z,28.64
2022-08-29T15:04:35.623Z,28.54
2022-08-29T15:07:09.172Z,28.52
2022-08-29T15:09:37.105Z,28.38
2022-08-29T15:12:05.420Z,28.26
2022-08-29T15:14:35.389Z,28.14
2022-08-29T15:17:04.066Z,28.07
2022-08-29T15:20:17.673Z,27.99
2022-08-29T15:22:20.014Z,27.86
2022-08-29T15:24:47.878Z,27.78
2022-08-29T15:27:15.669Z,27.67
2022-08-29T15:29:43.485Z,27.58
2022-08-29T15:32:12.908Z,27.55
2022-08-29T15:34:41.575Z,27.55
2022-08-29T15:37:10.174Z,27.53
2022-08-29T15:39:38.103Z,27.45
2022-08-29T15:42:09.568Z,27.43
2022-08-29T15:44:37.338Z,27.41
2022-08-29T15:47:05.231Z,27.41
2022-08-29T15:49:38.292Z,27.33
2022-08-29T15:52:06.197Z,27.26
2022-08-29T15:54:34.016Z,27.19
2022-08-29T15:57:01.883Z,27.16
2022-08-29T15:59:54.318Z,27.12
2022-08-29T16:02:18.497Z,27.03
2022-08-29T16:04:48.709Z,26.98
2022-08-29T16:07:16.936Z,26.95
2022-08-29T16:09:45.530Z,26.93
2022-08-29T16:12:13.580Z,26.91
2022-08-29T16:17:30.877Z,26.81
2022-08-29T16:19:59.373Z,26.80
2022-08-29T16:22:28.918Z,26.77
2022-08-29T16:24:56.789Z,26.74
2022-08-29T16:27:25.677Z,26.70
2022-08-29T16:29:53.997Z,26.60
2022-08-29T16:32:21.944Z,26.56
2022-08-29T16:34:49.891Z,26.54
2022-08-29T16:37:17.703Z,26.55
2022-08-29T16:39:45.528Z,26.52
2022-08-29T16:42:13.459Z,26.49
2022-08-29T16:44:41.584Z,26.47
2022-08-29T16:47:09.410Z,26.44
2022-08-29T16:49:37.215Z,26.40
2022-08-29T16:52:05.737Z,26.34
2022-08-29T16:54:33.665Z,26.25
2022-08-29T16:57:01.590Z,26.19
2022-08-29T16:59:29.492Z,26.12
2022-08-29T17:01:57.743Z,26.09
2022-08-29T17:04:27.368Z,26.05
2022-08-29T17:06:55.338Z,25.99
2022-08-29T17:09:24.335Z,25.94
2022-08-29T17:11:52.477Z,25.91
2022-08-29T17:14:20.575Z,25.89
2022-08-29T17:16:49.140Z,25.83
2022-08-29T17:19:17.043Z,25.80
2022-08-29T17:21:44.940Z,25.74
2022-08-29T17:24:13.368Z,25.68
2022-08-29T17:26:42.544Z,25.60
2022-08-29T17:29:10.475Z,25.57
2022-08-29T17:31:39.213Z,25.51
2022-08-29T17:34:07.825Z,25.53
2022-08-29T17:36:37.656Z,25.43
2022-08-29T17:39:06.495Z,25.42
2022-08-29T17:41:36.901Z,25.33
2022-08-29T17:44:06.421Z,25.32
2022-08-29T17:46:34.353Z,25.30
2022-08-29T17:49:06.961Z,25.20
2022-08-29T17:51:36.094Z,25.14
2022-08-29T17:54:05.351Z,25.10
2022-08-29T17:56:44.422Z,25.05
2022-08-29T17:59:13.592Z,25.01
2022-08-29T18:01:41.594Z,24.94
2022-08-29T18:04:09.598Z,24.90
2022-08-29T18:06:37.598Z,24.83
2022-08-29T18:09:06.116Z,24.75
2022-08-29T18:11:34.209Z,24.70
2022-08-29T18:14:02.363Z,24.67
2022-08-29T18:16:30.357Z,24.63
2022-08-29T18:18:58.296Z,24.56
2022-08-29T18:21:27.147Z,24.51
2022-08-29T18:23:55.016Z,24.45
2022-08-29T18:26:22.985Z,24.39
2022-08-29T18:28:51.316Z,24.30
2022-08-29T18:31:19.797Z,24.23
2022-08-29T18:34:04.173Z,24.15
2022-08-29T18:36:33.497Z,24.09
2022-08-29T18:39:02.210Z,24.01
2022-08-29T18:41:30.116Z,23.94
2022-08-29T18:43:58.313Z,23.90
2022-08-29T18:46:27.159Z,23.82
2022-08-29T18:48:55.108Z,23.79
2022-08-29T18:51:22.915Z,23.80
2022-08-29T18:53:50.868Z,23.73
2022-08-29T18:56:18.700Z,23.69
2022-08-29T18:58:46.602Z,23.63
2022-08-29T19:01:15.506Z,23.58
2022-08-29T19:03:55.136Z,23.51
2022-08-29T19:06:26.913Z,23.43
2022-08-29T19:08:55.602Z,23.37
2022-08-29T19:11:23.574Z,23.31
2022-08-29T19:15:00.890Z,23.24
2022-08-29T19:16:40.817Z,23.17
2022-08-29T19:19:13.204Z,23.06
2022-08-29T19:21:43.575Z,23.04
2022-08-29T19:24:11.525Z,22.99
2022-08-29T19:26:41.287Z,22.93
2022-08-29T19:29:15.257Z,22.92
2022-08-29T19:31:43.643Z,22.88
2022-08-29T19:34:12.505Z,22.83
2022-08-29T19:36:41.178Z,22.76
2022-08-29T19:39:09.045Z,22.72
2022-08-29T19:41:37.447Z,22.67
2022-08-29T19:44:05.433Z,22.62
2022-08-29T19:46:33.960Z,22.56
2022-08-29T19:49:02.722Z,22.53
2022-08-29T19:51:33.947Z,22.46
2022-08-29T19:54:04.665Z,22.44
2022-08-29T19:56:34.512Z,22.42
2022-08-29T19:59:02.574Z,22.36
2022-08-29T20:01:30.550Z,22.35
2022-08-29T20:03:58.542Z,22.34
2022-08-29T20:06:27.121Z,22.28
2022-08-29T20:08:54.970Z,22.25
2022-08-29T20:11:25.894Z,22.21
2022-08-29T20:13:54.622Z,22.19
2022-08-29T20:16:23.914Z,22.13
2022-08-29T20:18:52.152Z,22.09
2022-08-29T20:21:20.393Z,22.06
2022-08-29T20:23:52.851Z,22.02
2022-08-29T20:26:30.051Z,21.97
2022-08-29T20:28:59.697Z,21.88
2022-08-29T20:31:29.510Z,21.81
2022-08-29T20:34:00.712Z,21.76
2022-08-29T20:36:49.405Z,21.69
2022-08-29T20:39:24.264Z,21.66
2022-08-29T20:41:56.583Z,21.61
2022-08-29T20:44:33.774Z,21.55
2022-08-29T20:47:06.889Z,21.52
2022-08-29T20:49:36.176Z,21.43
2022-08-29T20:52:06.042Z,21.41
2022-08-29T20:54:39.050Z,21.37
2022-08-29T20:57:29.532Z,21.34
2022-08-29T20:59:58.082Z,21.27
2022-08-29T21:02:50.187Z,21.22
2022-08-29T21:05:37.898Z,21.19
2022-08-29T21:08:09.563Z,21.12
2022-08-29T21:10:54.560Z,21.12
2022-08-29T21:13:29.948Z,21.08
2022-08-29T21:16:01.265Z,21.11
2022-08-29T21:18:35.057Z,21.05
2022-08-29T21:21:14.720Z,21.01
2022-08-29T21:23:50.357Z,21.02
2022-08-29T21:26:34.832Z,20.96
2022-08-29T21:29:03.286Z,20.92
2022-08-29T21:31:35.182Z,20.90
2022-08-29T21:34:07.284Z,20.89
2022-08-29T21:36:45.157Z,20.86
2022-08-29T21:39:28.241Z,20.81
2022-08-29T21:42:02.474Z,20.81
2022-08-29T21:44:37.523Z,20.73
2022-08-29T21:47:18.135Z,20.73
2022-08-29T21:50:03.540Z,20.68
2022-08-29T21:52:32.257Z,20.64
2022-08-29T21:55:00.704Z,20.57
2022-08-29T21:57:56.868Z,20.57
2022-08-29T22:00:33.952Z,20.56
2022-08-29T22:03:06.172Z,20.54
2022-08-29T22:05:40.707Z,20.53
2022-08-29T22:08:16.673Z,20.52
2022-08-29T22:10:45.453Z,20.50
2022-08-29T22:13:16.772Z,20.49
2022-08-29T22:16:12.205Z,20.46
2022-08-29T22:18:43.260Z,20.39
2022-08-29T22:21:15.141Z,20.35
2022-08-29T22:23:45.730Z,20.33
2022-08-29T22:26:14.626Z,20.32
2022-08-29T22:28:43.502Z,20.29
2022-08-29T22:31:11.368Z,20.26
2022-08-29T22:34:02.442Z,20.25
2022-08-29T22:36:34.141Z,20.23
2022-08-29T22:39:02.085Z,20.16
2022-08-29T22:41:30.198Z,20.12
2022-08-29T22:44:42.480Z,20.08
2022-08-29T22:46:50.846Z,20.09
2022-08-29T22:49:20.273Z,20.02
2022-08-29T22:51:49.390Z,20.03
2022-08-29T22:54:35.605Z,20.02
2022-08-29T22:57:08.255Z,20.01
2022-08-29T22:59:36.248Z,19.98
2022-08-29T23:02:07.532Z,19.94
2022-08-29T23:04:35.583Z,19.90
2022-08-29T23:07:06.639Z,19.88
2022-08-29T23:09:35.595Z,19.87
2022-08-29T23:12:09.267Z,19.84
2022-08-29T23:14:38.475Z,19.84
2022-08-29T23:17:06.986Z,19.79
2022-08-29T23:19:36.473Z,19.72
2022-08-29T23:22:07.181Z,19.71
2022-08-29T23:24:36.894Z,19.70
2022-08-29T23:27:05.791Z,19.68
2022-08-29T23:29:42.069Z,19.65
2022-08-29T23:32:10.819Z,19.64
2022-08-29T23:34:40.872Z,19.58
2022-08-29T23:37:09.572Z,19.56
2022-08-29T23:39:41.115Z,19.54
2022-08-29T23:42:09.168Z,19.49
2022-08-29T23:44:39.731Z,19.47
2022-08-29T23:47:09.553Z,19.45
2022-08-29T23:49:40.484Z,19.45
2022-08-29T23:52:09.028Z,19.43
2022-08-29T23:54:37.956Z,19.44
2022-08-29T23:57:06.890Z,19.43
2022-08-29T23:59:54.732Z,19.44
